El Paso, TX (88533)

9:39 PM MDT on May 04, 2015 (GMT -0600)
DOLPHIN | | Change Station
CLOSE
Current Station
Personal Weather Station
Location: EL PASO, TX
Elevation: 3898 ft
Nearby Weather Stations

Elev 3898 ft 31.89 °N, 106.40 °W | Updated 2 seconds ago

Mostly Cloudy
Mostly Cloudy
69.5 °F
Feels Like 69.5 °F
N
0.0
Wind Variable Wind from North
Gusts 0.0 mph

Today
High -- | Low -- °F
--% Chance of Precip.
Yesterday
High -- | Low -- °F
Precip. -- in
6:17 AM 7:47 PM
Full, 99% visible
Pressure 29.65 in
Visibility 10.0 miles
Clouds Scattered Clouds 6000 ft
Mostly Cloudy 12000 ft
Dew Point 49 °F
Humidity 48%
Rainfall 0.08 in
Snow Depth Not available.
UV 0 out of 12
Pollen 7.10 out of 12
Air Quality Not available.
Flu Activity Sporadic
METAR KELP 050251Z 35009KT 10SM SCT060 BKN120 23/09 A2984 RMK AO2 SLP039 T02280089 53026

More Conditions Fewer Conditions

Pressure 29.65 in
Visibility 10.0 miles
Clouds Scattered Clouds 6000 ft
Mostly Cloudy 12000 ft
Dew Point 49 °F
Humidity 48%
Rainfall 0.08 in
Snow Depth Not available.
UV 0 out of 12
Pollen 7.10 out of 12
Air Quality Not available.
Flu Activity Sporadic
METAR KELP 050251Z 35009KT 10SM SCT060 BKN120 23/09 A2984 RMK AO2 SLP039 T02280089 53026

More Conditions Fewer Conditions

Nepal has a long way to go to dig out and rebuild from a devastating earthquake. We have teamed up with several charities and organizations to make contributing to the relief effort as easy as possible.
How you can help: Portlight Strategies | Red Cross
Nowcast | as of 8:31 PM MDT on May 4, 2015

At 830 PM MDT...National Weather Service radar still indicated scattered moderately strong thunderstorms in south central New Mexico and far West Texas. These storms where moving to the northeast at 20 to 25 mph. Periods of small hail...moderate rainfall and wind gusts to 50 mph are possible from these storms. Storms will gradually diminish over the next few hours.

×

10-Day Weather Forecast

Almanac

Astronomy

May. 04, 2015 Rise Set
Actual Time
Civil Twilight
Nautical Twilight
Astronomical Twilight
Moon
Length of Visible Light
Length of Day
Tomorrow will be .
, % of the Moon is Illuminated

Today's Extremes

State Highs State Lows

Community

WunderPhotos

Upload Photos

1,818,812 photos uploaded!

WunderBlogs® & News

Nearby

Air Quality

  Air Quality AQ Index Pollutant
Not available.

Snow Depth

Station Depth Elevation

Earthquake Activity

City Distance Mag. Time & Date
Minimum magnitude displayed is 2.5.

Coastal Water Temperatures

Place Temperature

Stations

Nearby Weather Stations

Station Location Temp. Windchill Dew Point Humidity Wind Precip. Elev Updated Type